DFOO/BOY METAR and TAF weather

Enter ICAO airport designator
Station Type Date Time Source
DFOO METAR 2019/06/25 11:00 UTC NOAA

DFOO 251100Z 19010KT CAVOK 28/20 Q1013


Station Type Date Time Source
DFOO Decoded METAR 2019/06/25 11:00 UTC NOAA

Bobo-Dioulasso, Burkina Faso (DFOO) 11-10N 004-19W 460M
Jun 25, 2019 - 07:00 AM EDT / 2019.06.25 1100 UTC
Wind: from the S (190 degrees) at 12 MPH (10 KT):0
Visibility: greater than 7 mile(s):0
Temperature: 82 F (28 C)
Dew Point: 68 F (20 C)
Relative Humidity: 61%
Pressure (altimeter): 29.91 in. Hg (1013 hPa)
ob: DFOO 251100Z 19010KT CAVOK 28/20 Q1013
cycle: 11

Station Type Date Time Source
DFOO TAF 2019/06/25 12:27 UTC NOAA

TAF COR DFOO 251100Z 2512/2612 20008KT 9999 FEW020
TEMPO 2518/2602 TS FEW020 FEW030CB

Example: see airport list